sensor_id;sensor_type;location;lat;lon;timestamp;P1;durP1;ratioP1;P2;durP2;ratioP2
8622;SDS011;4349;47.552;8.904;2023-06-14T00:01:07;3.80;;;3.47;;
8622;SDS011;4349;47.552;8.904;2023-06-14T00:03:35;3.40;;;3.07;;
8622;SDS011;4349;47.552;8.904;2023-06-14T00:06:03;3.87;;;3.67;;
8622;SDS011;4349;47.552;8.904;2023-06-14T00:08:31;4.07;;;3.87;;
8622;SDS011;4349;47.552;8.904;2023-06-14T00:10:58;4.30;;;3.50;;
8622;SDS011;4349;47.552;8.904;2023-06-14T00:13:26;3.87;;;3.67;;
8622;SDS011;4349;47.552;8.904;2023-06-14T00:15:55;4.13;;;3.83;;
8622;SDS011;4349;47.552;8.904;2023-06-14T00:18:22;4.10;;;3.80;;
8622;SDS011;4349;47.552;8.904;2023-06-14T00:20:51;4.00;;;3.60;;
8622;SDS011;4349;47.552;8.904;2023-06-14T00:23:19;3.40;;;3.23;;
8622;SDS011;4349;47.552;8.904;2023-06-14T00:25:46;3.63;;;3.43;;
8622;SDS011;4349;47.552;8.904;2023-06-14T00:28:14;3.43;;;3.30;;
8622;SDS011;4349;47.552;8.904;2023-06-14T00:30:42;3.43;;;3.23;;
8622;SDS011;4349;47.552;8.904;2023-06-14T00:33:14;3.93;;;3.63;;
8622;SDS011;4349;47.552;8.904;2023-06-14T00:35:42;3.67;;;3.40;;
8622;SDS011;4349;47.552;8.904;2023-06-14T00:38:09;3.50;;;3.20;;
8622;SDS011;4349;47.552;8.904;2023-06-14T00:40:39;3.70;;;3.50;;
8622;SDS011;4349;47.552;8.904;2023-06-14T00:43:07;3.80;;;3.60;;
8622;SDS011;4349;47.552;8.904;2023-06-14T00:45:35;3.43;;;3.23;;
8622;SDS011;4349;47.552;8.904;2023-06-14T00:48:03;3.70;;;3.50;;
8622;SDS011;4349;47.552;8.904;2023-06-14T00:50:34;3.80;;;3.60;;
8622;SDS011;4349;47.552;8.904;2023-06-14T00:53:02;3.63;;;3.33;;
8622;SDS011;4349;47.552;8.904;2023-06-14T00:55:30;3.63;;;3.43;;
8622;SDS011;4349;47.552;8.904;2023-06-14T00:57:59;3.47;;;3.37;;
8622;SDS011;4349;47.552;8.904;2023-06-14T01:00:26;3.57;;;3.37;;
8622;SDS011;4349;47.552;8.904;2023-06-14T01:02:54;3.90;;;3.60;;
8622;SDS011;4349;47.552;8.904;2023-06-14T01:05:23;4.13;;;3.83;;
8622;SDS011;4349;47.552;8.904;2023-06-14T01:07:55;3.90;;;3.60;;
8622;SDS011;4349;47.552;8.904;2023-06-14T01:10:30;4.13;;;3.80;;
8622;SDS011;4349;47.552;8.904;2023-06-14T01:13:03;4.13;;;3.83;;
8622;SDS011;4349;47.552;8.904;2023-06-14T01:15:32;4.73;;;4.10;;
8622;SDS011;4349;47.552;8.904;2023-06-14T01:18:01;4.30;;;3.93;;
8622;SDS011;4349;47.552;8.904;2023-06-14T01:20:31;4.47;;;4.17;;
8622;SDS011;4349;47.552;8.904;2023-06-14T01:23:00;4.23;;;3.97;;
8622;SDS011;4349;47.552;8.904;2023-06-14T01:25:29;4.57;;;3.90;;
8622;SDS011;4349;47.552;8.904;2023-06-14T01:27:57;4.00;;;3.80;;
8622;SDS011;4349;47.552;8.904;2023-06-14T01:30:25;4.77;;;4.37;;
8622;SDS011;4349;47.552;8.904;2023-06-14T01:32:54;4.53;;;4.23;;
8622;SDS011;4349;47.552;8.904;2023-06-14T01:35:22;4.60;;;4.20;;
8622;SDS011;4349;47.552;8.904;2023-06-14T01:37:49;4.27;;;4.00;;
8622;SDS011;4349;47.552;8.904;2023-06-14T01:40:19;4.23;;;4.00;;
8622;SDS011;4349;47.552;8.904;2023-06-14T01:42:49;4.80;;;4.40;;
8622;SDS011;4349;47.552;8.904;2023-06-14T01:45:17;4.33;;;4.03;;
8622;SDS011;4349;47.552;8.904;2023-06-14T01:47:45;3.80;;;3.60;;
8622;SDS011;4349;47.552;8.904;2023-06-14T01:50:14;4.83;;;4.43;;
8622;SDS011;4349;47.552;8.904;2023-06-14T01:52:42;5.87;;;4.50;;
8622;SDS011;4349;47.552;8.904;2023-06-14T01:55:10;5.20;;;4.80;;
8622;SDS011;4349;47.552;8.904;2023-06-14T01:57:39;4.93;;;4.50;;
8622;SDS011;4349;47.552;8.904;2023-06-14T02:00:07;6.93;;;5.10;;
8622;SDS011;4349;47.552;8.904;2023-06-14T02:02:39;5.77;;;5.27;;
8622;SDS011;4349;47.552;8.904;2023-06-14T02:05:07;5.70;;;5.20;;
8622;SDS011;4349;47.552;8.904;2023-06-14T02:07:35;5.60;;;5.10;;
8622;SDS011;4349;47.552;8.904;2023-06-14T02:10:02;5.03;;;4.73;;
8622;SDS011;4349;47.552;8.904;2023-06-14T02:12:30;4.83;;;4.43;;
8622;SDS011;4349;47.552;8.904;2023-06-14T02:14:59;4.90;;;4.50;;
8622;SDS011;4349;47.552;8.904;2023-06-14T02:17:27;5.10;;;4.70;;
8622;SDS011;4349;47.552;8.904;2023-06-14T02:19:55;5.27;;;4.83;;
8622;SDS011;4349;47.552;8.904;2023-06-14T02:22:25;4.77;;;4.43;;
8622;SDS011;4349;47.552;8.904;2023-06-14T02:24:52;4.83;;;4.50;;
8622;SDS011;4349;47.552;8.904;2023-06-14T02:27:27;5.30;;;5.00;;
8622;SDS011;4349;47.552;8.904;2023-06-14T02:29:55;5.17;;;4.80;;
8622;SDS011;4349;47.552;8.904;2023-06-14T02:32:25;5.03;;;4.70;;
8622;SDS011;4349;47.552;8.904;2023-06-14T02:34:53;5.27;;;4.90;;
8622;SDS011;4349;47.552;8.904;2023-06-14T02:37:21;5.40;;;5.10;;
8622;SDS011;4349;47.552;8.904;2023-06-14T02:39:48;5.23;;;4.47;;
8622;SDS011;4349;47.552;8.904;2023-06-14T02:42:15;5.60;;;5.10;;
8622;SDS011;4349;47.552;8.904;2023-06-14T02:44:43;5.40;;;5.00;;
8622;SDS011;4349;47.552;8.904;2023-06-14T02:47:11;5.73;;;5.10;;
8622;SDS011;4349;47.552;8.904;2023-06-14T02:49:40;6.40;;;5.67;;
8622;SDS011;4349;47.552;8.904;2023-06-14T02:52:07;5.60;;;5.10;;
8622;SDS011;4349;47.552;8.904;2023-06-14T02:54:35;5.13;;;4.73;;
8622;SDS011;4349;47.552;8.904;2023-06-14T02:57:02;5.40;;;5.00;;
8622;SDS011;4349;47.552;8.904;2023-06-14T02:59:31;5.87;;;5.37;;
8622;SDS011;4349;47.552;8.904;2023-06-14T03:01:58;5.03;;;4.70;;
8622;SDS011;4349;47.552;8.904;2023-06-14T03:04:26;5.20;;;4.80;;
8622;SDS011;4349;47.552;8.904;2023-06-14T03:06:56;4.93;;;4.43;;
8622;SDS011;4349;47.552;8.904;2023-06-14T03:09:25;5.20;;;4.70;;
8622;SDS011;4349;47.552;8.904;2023-06-14T03:11:52;5.10;;;4.70;;
8622;SDS011;4349;47.552;8.904;2023-06-14T03:14:20;5.30;;;4.90;;
8622;SDS011;4349;47.552;8.904;2023-06-14T03:16:48;5.00;;;4.63;;
8622;SDS011;4349;47.552;8.904;2023-06-14T03:19:16;5.27;;;4.33;;
8622;SDS011;4349;47.552;8.904;2023-06-14T03:21:44;5.07;;;4.30;;
8622;SDS011;4349;47.552;8.904;2023-06-14T03:24:13;5.20;;;4.90;;
8622;SDS011;4349;47.552;8.904;2023-06-14T03:26:42;5.10;;;4.80;;
8622;SDS011;4349;47.552;8.904;2023-06-14T03:29:10;4.33;;;4.13;;
8622;SDS011;4349;47.552;8.904;2023-06-14T03:31:41;5.93;;;5.10;;
8622;SDS011;4349;47.552;8.904;2023-06-14T03:34:23;5.40;;;5.00;;
8622;SDS011;4349;47.552;8.904;2023-06-14T03:36:50;5.63;;;5.23;;
8622;SDS011;4349;47.552;8.904;2023-06-14T03:39:19;5.50;;;5.20;;
8622;SDS011;4349;47.552;8.904;2023-06-14T03:41:47;6.27;;;5.60;;
8622;SDS011;4349;47.552;8.904;2023-06-14T03:44:15;6.23;;;5.70;;
8622;SDS011;4349;47.552;8.904;2023-06-14T03:46:44;5.50;;;5.10;;
8622;SDS011;4349;47.552;8.904;2023-06-14T03:49:12;6.13;;;5.17;;
8622;SDS011;4349;47.552;8.904;2023-06-14T03:51:39;5.93;;;5.50;;
8622;SDS011;4349;47.552;8.904;2023-06-14T03:54:07;5.50;;;5.20;;
8622;SDS011;4349;47.552;8.904;2023-06-14T03:56:39;5.60;;;5.20;;
8622;SDS011;4349;47.552;8.904;2023-06-14T03:59:09;5.67;;;5.13;;
8622;SDS011;4349;47.552;8.904;2023-06-14T04:01:37;6.27;;;5.67;;
8622;SDS011;4349;47.552;8.904;2023-06-14T04:04:14;6.07;;;5.07;;
8622;SDS011;4349;47.552;8.904;2023-06-14T04:06:42;5.40;;;4.93;;
8622;SDS011;4349;47.552;8.904;2023-06-14T04:09:10;5.50;;;5.10;;
8622;SDS011;4349;47.552;8.904;2023-06-14T04:11:41;4.93;;;4.63;;
8622;SDS011;4349;47.552;8.904;2023-06-14T04:14:08;4.90;;;4.60;;
8622;SDS011;4349;47.552;8.904;2023-06-14T04:16:37;5.00;;;4.70;;
8622;SDS011;4349;47.552;8.904;2023-06-14T04:19:04;5.20;;;4.80;;
8622;SDS011;4349;47.552;8.904;2023-06-14T04:21:32;4.93;;;4.50;;
8622;SDS011;4349;47.552;8.904;2023-06-14T04:24:02;4.50;;;4.30;;
8622;SDS011;4349;47.552;8.904;2023-06-14T04:26:32;4.80;;;4.33;;
8622;SDS011;4349;47.552;8.904;2023-06-14T04:29:02;5.67;;;5.30;;
8622;SDS011;4349;47.552;8.904;2023-06-14T04:31:33;4.93;;;4.53;;
8622;SDS011;4349;47.552;8.904;2023-06-14T04:34:05;5.07;;;4.77;;
8622;SDS011;4349;47.552;8.904;2023-06-14T04:36:34;5.50;;;5.10;;
8622;SDS011;4349;47.552;8.904;2023-06-14T04:39:03;5.13;;;4.83;;
8622;SDS011;4349;47.552;8.904;2023-06-14T04:41:30;5.23;;;4.83;;
8622;SDS011;4349;47.552;8.904;2023-06-14T04:43:59;5.37;;;4.97;;
8622;SDS011;4349;47.552;8.904;2023-06-14T04:46:33;4.80;;;4.50;;
8622;SDS011;4349;47.552;8.904;2023-06-14T04:49:16;5.17;;;4.80;;
8622;SDS011;4349;47.552;8.904;2023-06-14T04:51:44;6.13;;;4.83;;
8622;SDS011;4349;47.552;8.904;2023-06-14T04:54:12;5.50;;;5.10;;
8622;SDS011;4349;47.552;8.904;2023-06-14T04:56:40;6.20;;;4.73;;
8622;SDS011;4349;47.552;8.904;2023-06-14T04:59:09;5.50;;;4.73;;
8622;SDS011;4349;47.552;8.904;2023-06-14T05:01:39;5.37;;;4.90;;
8622;SDS011;4349;47.552;8.904;2023-06-14T05:04:06;5.37;;;4.97;;
8622;SDS011;4349;47.552;8.904;2023-06-14T05:06:34;4.90;;;4.60;;
8622;SDS011;4349;47.552;8.904;2023-06-14T05:09:02;5.13;;;4.60;;
8622;SDS011;4349;47.552;8.904;2023-06-14T05:11:30;5.30;;;5.00;;
8622;SDS011;4349;47.552;8.904;2023-06-14T05:13:58;5.00;;;4.70;;
8622;SDS011;4349;47.552;8.904;2023-06-14T05:16:25;5.13;;;4.73;;
8622;SDS011;4349;47.552;8.904;2023-06-14T05:18:57;4.77;;;4.47;;
8622;SDS011;4349;47.552;8.904;2023-06-14T05:21:25;6.23;;;5.07;;
8622;SDS011;4349;47.552;8.904;2023-06-14T05:23:52;5.47;;;4.40;;
8622;SDS011;4349;47.552;8.904;2023-06-14T05:26:20;4.97;;;4.67;;
8622;SDS011;4349;47.552;8.904;2023-06-14T05:28:49;5.00;;;4.60;;
8622;SDS011;4349;47.552;8.904;2023-06-14T05:31:18;5.10;;;4.60;;
8622;SDS011;4349;47.552;8.904;2023-06-14T05:33:46;5.10;;;4.70;;
8622;SDS011;4349;47.552;8.904;2023-06-14T05:36:16;5.23;;;4.83;;
8622;SDS011;4349;47.552;8.904;2023-06-14T05:38:44;7.77;;;4.67;;
8622;SDS011;4349;47.552;8.904;2023-06-14T05:41:12;7.57;;;4.73;;
8622;SDS011;4349;47.552;8.904;2023-06-14T05:43:39;5.87;;;4.67;;
8622;SDS011;4349;47.552;8.904;2023-06-14T05:46:07;5.27;;;4.77;;
8622;SDS011;4349;47.552;8.904;2023-06-14T05:48:34;4.87;;;4.47;;
8622;SDS011;4349;47.552;8.904;2023-06-14T05:51:02;5.23;;;4.73;;
8622;SDS011;4349;47.552;8.904;2023-06-14T05:53:30;4.37;;;4.10;;
8622;SDS011;4349;47.552;8.904;2023-06-14T05:55:58;5.73;;;4.40;;
8622;SDS011;4349;47.552;8.904;2023-06-14T05:58:26;5.13;;;4.80;;
8622;SDS011;4349;47.552;8.904;2023-06-14T06:00:53;4.87;;;4.57;;
8622;SDS011;4349;47.552;8.904;2023-06-14T06:03:20;4.80;;;4.40;;
8622;SDS011;4349;47.552;8.904;2023-06-14T06:05:49;4.90;;;4.50;;
8622;SDS011;4349;47.552;8.904;2023-06-14T06:08:16;4.43;;;4.13;;
8622;SDS011;4349;47.552;8.904;2023-06-14T06:10:46;4.60;;;4.30;;
8622;SDS011;4349;47.552;8.904;2023-06-14T06:13:13;5.73;;;4.47;;
8622;SDS011;4349;47.552;8.904;2023-06-14T06:15:41;4.07;;;3.80;;
8622;SDS011;4349;47.552;8.904;2023-06-14T06:18:09;5.00;;;4.60;;
8622;SDS011;4349;47.552;8.904;2023-06-14T06:20:36;4.30;;;4.00;;
8622;SDS011;4349;47.552;8.904;2023-06-14T06:23:04;4.80;;;4.47;;
8622;SDS011;4349;47.552;8.904;2023-06-14T06:25:31;5.00;;;4.50;;
8622;SDS011;4349;47.552;8.904;2023-06-14T06:28:00;4.03;;;3.83;;
8622;SDS011;4349;47.552;8.904;2023-06-14T06:30:28;4.37;;;4.07;;
8622;SDS011;4349;47.552;8.904;2023-06-14T06:32:55;4.77;;;4.40;;
8622;SDS011;4349;47.552;8.904;2023-06-14T06:35:23;4.77;;;4.47;;
8622;SDS011;4349;47.552;8.904;2023-06-14T06:37:51;4.53;;;4.17;;
8622;SDS011;4349;47.552;8.904;2023-06-14T06:40:18;4.27;;;3.90;;
8622;SDS011;4349;47.552;8.904;2023-06-14T06:42:46;4.47;;;4.20;;
8622;SDS011;4349;47.552;8.904;2023-06-14T06:45:18;4.00;;;3.80;;
8622;SDS011;4349;47.552;8.904;2023-06-14T06:47:47;5.20;;;4.30;;
8622;SDS011;4349;47.552;8.904;2023-06-14T06:50:14;4.00;;;3.60;;
8622;SDS011;4349;47.552;8.904;2023-06-14T06:52:42;4.30;;;3.90;;
8622;SDS011;4349;47.552;8.904;2023-06-14T06:55:11;5.00;;;4.23;;
8622;SDS011;4349;47.552;8.904;2023-06-14T06:57:39;4.70;;;4.30;;
8622;SDS011;4349;47.552;8.904;2023-06-14T07:00:09;4.83;;;4.40;;
8622;SDS011;4349;47.552;8.904;2023-06-14T07:02:38;4.90;;;4.40;;
8622;SDS011;4349;47.552;8.904;2023-06-14T07:05:06;5.03;;;4.10;;
8622;SDS011;4349;47.552;8.904;2023-06-14T07:07:33;4.47;;;4.17;;
8622;SDS011;4349;47.552;8.904;2023-06-14T07:10:01;4.73;;;4.30;;
8622;SDS011;4349;47.552;8.904;2023-06-14T07:12:30;4.80;;;4.40;;
8622;SDS011;4349;47.552;8.904;2023-06-14T07:14:59;4.50;;;4.20;;
8622;SDS011;4349;47.552;8.904;2023-06-14T07:17:28;6.77;;;4.77;;
8622;SDS011;4349;47.552;8.904;2023-06-14T07:19:57;4.40;;;4.10;;
8622;SDS011;4349;47.552;8.904;2023-06-14T07:22:25;4.53;;;4.13;;
8622;SDS011;4349;47.552;8.904;2023-06-14T07:24:52;4.07;;;3.73;;
8622;SDS011;4349;47.552;8.904;2023-06-14T07:27:20;3.90;;;3.70;;
8622;SDS011;4349;47.552;8.904;2023-06-14T07:29:47;3.73;;;3.53;;
8622;SDS011;4349;47.552;8.904;2023-06-14T07:32:15;3.47;;;3.27;;
8622;SDS011;4349;47.552;8.904;2023-06-14T07:34:42;3.83;;;3.63;;
8622;SDS011;4349;47.552;8.904;2023-06-14T07:37:11;4.57;;;4.13;;
8622;SDS011;4349;47.552;8.904;2023-06-14T07:39:38;4.90;;;3.57;;
8622;SDS011;4349;47.552;8.904;2023-06-14T07:42:06;4.13;;;3.83;;
8622;SDS011;4349;47.552;8.904;2023-06-14T07:44:34;3.50;;;3.30;;
8622;SDS011;4349;47.552;8.904;2023-06-14T07:47:02;3.70;;;3.40;;
8622;SDS011;4349;47.552;8.904;2023-06-14T07:49:30;3.73;;;3.43;;
8622;SDS011;4349;47.552;8.904;2023-06-14T07:51:57;3.83;;;3.53;;
8622;SDS011;4349;47.552;8.904;2023-06-14T07:54:26;4.73;;;3.50;;
8622;SDS011;4349;47.552;8.904;2023-06-14T07:56:56;4.00;;;3.70;;
8622;SDS011;4349;47.552;8.904;2023-06-14T07:59:24;4.40;;;3.33;;
8622;SDS011;4349;47.552;8.904;2023-06-14T08:01:52;4.20;;;3.40;;
8622;SDS011;4349;47.552;8.904;2023-06-14T08:04:19;4.67;;;4.33;;
8622;SDS011;4349;47.552;8.904;2023-06-14T08:06:47;3.90;;;3.60;;
8622;SDS011;4349;47.552;8.904;2023-06-14T08:09:14;3.43;;;3.23;;
8622;SDS011;4349;47.552;8.904;2023-06-14T08:11:43;4.23;;;3.50;;
8622;SDS011;4349;47.552;8.904;2023-06-14T08:14:12;9.83;;;4.00;;
8622;SDS011;4349;47.552;8.904;2023-06-14T08:16:39;4.50;;;3.53;;
8622;SDS011;4349;47.552;8.904;2023-06-14T08:19:07;4.67;;;3.73;;
8622;SDS011;4349;47.552;8.904;2023-06-14T08:21:34;3.80;;;3.60;;
8622;SDS011;4349;47.552;8.904;2023-06-14T08:24:02;3.93;;;3.50;;
8622;SDS011;4349;47.552;8.904;2023-06-14T08:26:30;4.30;;;3.53;;
8622;SDS011;4349;47.552;8.904;2023-06-14T08:28:59;4.50;;;3.60;;
8622;SDS011;4349;47.552;8.904;2023-06-14T08:31:27;3.37;;;3.20;;
8622;SDS011;4349;47.552;8.904;2023-06-14T08:33:54;3.50;;;3.30;;
8622;SDS011;4349;47.552;8.904;2023-06-14T08:36:22;3.77;;;3.47;;
8622;SDS011;4349;47.552;8.904;2023-06-14T08:38:50;4.83;;;3.30;;
8622;SDS011;4349;47.552;8.904;2023-06-14T08:41:20;3.93;;;3.63;;
8622;SDS011;4349;47.552;8.904;2023-06-14T08:43:48;3.67;;;3.47;;
8622;SDS011;4349;47.552;8.904;2023-06-14T08:46:17;3.90;;;3.50;;
8622;SDS011;4349;47.552;8.904;2023-06-14T08:48:48;3.90;;;3.60;;
8622;SDS011;4349;47.552;8.904;2023-06-14T08:51:17;4.03;;;3.47;;
8622;SDS011;4349;47.552;8.904;2023-06-14T08:53:45;3.87;;;3.57;;
8622;SDS011;4349;47.552;8.904;2023-06-14T08:56:13;4.10;;;3.73;;
8622;SDS011;4349;47.552;8.904;2023-06-14T08:58:44;3.80;;;3.50;;
8622;SDS011;4349;47.552;8.904;2023-06-14T09:01:12;3.33;;;3.23;;
8622;SDS011;4349;47.552;8.904;2023-06-14T09:03:42;3.13;;;3.03;;
8622;SDS011;4349;47.552;8.904;2023-06-14T09:06:11;3.37;;;3.27;;
8622;SDS011;4349;47.552;8.904;2023-06-14T09:08:40;4.30;;;3.70;;
8622;SDS011;4349;47.552;8.904;2023-06-14T09:11:10;3.47;;;3.27;;
8622;SDS011;4349;47.552;8.904;2023-06-14T09:13:38;3.40;;;3.07;;
8622;SDS011;4349;47.552;8.904;2023-06-14T09:16:05;3.50;;;3.30;;
8622;SDS011;4349;47.552;8.904;2023-06-14T09:18:34;3.40;;;3.20;;
8622;SDS011;4349;47.552;8.904;2023-06-14T09:21:03;3.13;;;3.00;;
8622;SDS011;4349;47.552;8.904;2023-06-14T09:23:33;3.87;;;3.50;;
8622;SDS011;4349;47.552;8.904;2023-06-14T09:26:01;3.43;;;3.23;;
8622;SDS011;4349;47.552;8.904;2023-06-14T09:28:28;3.10;;;2.90;;
8622;SDS011;4349;47.552;8.904;2023-06-14T09:30:56;3.57;;;3.37;;
8622;SDS011;4349;47.552;8.904;2023-06-14T09:33:24;3.77;;;3.47;;
8622;SDS011;4349;47.552;8.904;2023-06-14T09:35:53;3.27;;;3.07;;
8622;SDS011;4349;47.552;8.904;2023-06-14T09:38:22;3.60;;;3.33;;
8622;SDS011;4349;47.552;8.904;2023-06-14T09:40:51;3.40;;;3.23;;
8622;SDS011;4349;47.552;8.904;2023-06-14T09:43:19;3.53;;;3.33;;
8622;SDS011;4349;47.552;8.904;2023-06-14T09:45:48;3.50;;;3.23;;
8622;SDS011;4349;47.552;8.904;2023-06-14T09:48:15;4.40;;;3.90;;
8622;SDS011;4349;47.552;8.904;2023-06-14T09:50:45;3.90;;;3.57;;
8622;SDS011;4349;47.552;8.904;2023-06-14T09:53:12;3.03;;;2.90;;
8622;SDS011;4349;47.552;8.904;2023-06-14T09:55:41;3.37;;;3.17;;
8622;SDS011;4349;47.552;8.904;2023-06-14T09:58:10;3.13;;;3.03;;
8622;SDS011;4349;47.552;8.904;2023-06-14T10:00:38;4.70;;;3.30;;
8622;SDS011;4349;47.552;8.904;2023-06-14T10:03:11;3.77;;;3.57;;
8622;SDS011;4349;47.552;8.904;2023-06-14T10:05:39;4.20;;;3.90;;
8622;SDS011;4349;47.552;8.904;2023-06-14T10:08:08;3.40;;;3.20;;
8622;SDS011;4349;47.552;8.904;2023-06-14T10:10:38;3.50;;;3.40;;
8622;SDS011;4349;47.552;8.904;2023-06-14T10:13:07;3.63;;;3.33;;
8622;SDS011;4349;47.552;8.904;2023-06-14T10:15:37;3.90;;;3.60;;
8622;SDS011;4349;47.552;8.904;2023-06-14T10:18:06;5.67;;;3.50;;
8622;SDS011;4349;47.552;8.904;2023-06-14T10:20:37;4.37;;;3.50;;
8622;SDS011;4349;47.552;8.904;2023-06-14T10:23:10;3.87;;;3.60;;
8622;SDS011;4349;47.552;8.904;2023-06-14T10:25:39;3.77;;;3.40;;
8622;SDS011;4349;47.552;8.904;2023-06-14T10:28:17;4.03;;;3.23;;
8622;SDS011;4349;47.552;8.904;2023-06-14T10:33:47;3.13;;;3.03;;
8622;SDS011;4349;47.552;8.904;2023-06-14T10:36:26;3.50;;;3.30;;
8622;SDS011;4349;47.552;8.904;2023-06-14T10:38:57;3.57;;;3.37;;
8622;SDS011;4349;47.552;8.904;2023-06-14T10:41:26;3.53;;;3.33;;
8622;SDS011;4349;47.552;8.904;2023-06-14T10:46:37;3.80;;;3.60;;
8622;SDS011;4349;47.552;8.904;2023-06-14T10:49:05;3.80;;;3.60;;
8622;SDS011;4349;47.552;8.904;2023-06-14T10:51:38;3.60;;;3.30;;
8622;SDS011;4349;47.552;8.904;2023-06-14T10:54:12;3.40;;;3.20;;
8622;SDS011;4349;47.552;8.904;2023-06-14T10:56:45;3.97;;;3.53;;
8622;SDS011;4349;47.552;8.904;2023-06-14T10:59:13;3.57;;;3.27;;
8622;SDS011;4349;47.552;8.904;2023-06-14T11:01:53;3.53;;;3.30;;
8622;SDS011;4349;47.552;8.904;2023-06-14T11:04:27;3.70;;;3.50;;
8622;SDS011;4349;47.552;8.904;2023-06-14T11:07:03;3.40;;;3.30;;
8622;SDS011;4349;47.552;8.904;2023-06-14T11:09:51;3.80;;;3.50;;
8622;SDS011;4349;47.552;8.904;2023-06-14T11:12:22;3.60;;;3.30;;
8622;SDS011;4349;47.552;8.904;2023-06-14T11:14:51;4.00;;;3.70;;
8622;SDS011;4349;47.552;8.904;2023-06-14T11:17:20;3.33;;;3.03;;
8622;SDS011;4349;47.552;8.904;2023-06-14T11:19:47;3.77;;;3.57;;
8622;SDS011;4349;47.552;8.904;2023-06-14T11:22:15;3.50;;;3.40;;
8622;SDS011;4349;47.552;8.904;2023-06-14T11:24:43;4.27;;;4.07;;
8622;SDS011;4349;47.552;8.904;2023-06-14T11:27:11;3.87;;;3.33;;
8622;SDS011;4349;47.552;8.904;2023-06-14T11:29:39;3.53;;;3.27;;
8622;SDS011;4349;47.552;8.904;2023-06-14T11:32:14;3.17;;;3.07;;
8622;SDS011;4349;47.552;8.904;2023-06-14T11:34:44;3.77;;;3.50;;
8622;SDS011;4349;47.552;8.904;2023-06-14T11:37:13;3.90;;;3.60;;
8622;SDS011;4349;47.552;8.904;2023-06-14T11:39:43;3.90;;;3.70;;
8622;SDS011;4349;47.552;8.904;2023-06-14T11:42:13;3.50;;;3.30;;
8622;SDS011;4349;47.552;8.904;2023-06-14T11:44:40;3.73;;;3.53;;
8622;SDS011;4349;47.552;8.904;2023-06-14T11:47:08;4.27;;;3.73;;
8622;SDS011;4349;47.552;8.904;2023-06-14T11:49:36;3.60;;;3.40;;
8622;SDS011;4349;47.552;8.904;2023-06-14T11:52:05;4.30;;;3.90;;
8622;SDS011;4349;47.552;8.904;2023-06-14T11:54:32;4.83;;;3.57;;
8622;SDS011;4349;47.552;8.904;2023-06-14T11:57:00;3.55;;;3.35;;
8622;SDS011;4349;47.552;8.904;2023-06-14T11:59:28;3.50;;;3.20;;
8622;SDS011;4349;47.552;8.904;2023-06-14T12:01:57;4.10;;;3.70;;
8622;SDS011;4349;47.552;8.904;2023-06-14T12:04:26;3.63;;;3.33;;
8622;SDS011;4349;47.552;8.904;2023-06-14T12:06:54;3.42;;;3.15;;
8622;SDS011;4349;47.552;8.904;2023-06-14T12:09:23;4.05;;;3.85;;
8622;SDS011;4349;47.552;8.904;2023-06-14T12:11:59;3.90;;;3.50;;
8622;SDS011;4349;47.552;8.904;2023-06-14T12:14:28;5.80;;;3.50;;
8622;SDS011;4349;47.552;8.904;2023-06-14T12:17:03;3.97;;;3.67;;
8622;SDS011;4349;47.552;8.904;2023-06-14T12:19:30;3.80;;;3.60;;
8622;SDS011;4349;47.552;8.904;2023-06-14T12:21:59;3.83;;;3.53;;
8622;SDS011;4349;47.552;8.904;2023-06-14T12:24:28;4.82;;;3.50;;
8622;SDS011;4349;47.552;8.904;2023-06-14T12:26:57;3.90;;;3.70;;
8622;SDS011;4349;47.552;8.904;2023-06-14T12:29:25;3.58;;;3.38;;
8622;SDS011;4349;47.552;8.904;2023-06-14T12:31:53;4.40;;;3.93;;
8622;SDS011;4349;47.552;8.904;2023-06-14T12:34:23;4.03;;;3.60;;
8622;SDS011;4349;47.552;8.904;2023-06-14T12:36:50;3.83;;;3.60;;
8622;SDS011;4349;47.552;8.904;2023-06-14T12:39:19;3.35;;;3.17;;
8622;SDS011;4349;47.552;8.904;2023-06-14T12:41:48;3.45;;;3.10;;
8622;SDS011;4349;47.552;8.904;2023-06-14T12:44:16;6.90;;;3.40;;
8622;SDS011;4349;47.552;8.904;2023-06-14T12:46:43;4.32;;;3.72;;
8622;SDS011;4349;47.552;8.904;2023-06-14T12:49:11;3.83;;;3.63;;
8622;SDS011;4349;47.552;8.904;2023-06-14T12:51:39;3.50;;;3.30;;
8622;SDS011;4349;47.552;8.904;2023-06-14T12:54:06;3.53;;;3.22;;
8622;SDS011;4349;47.552;8.904;2023-06-14T12:56:34;3.30;;;3.10;;
8622;SDS011;4349;47.552;8.904;2023-06-14T12:59:03;3.70;;;3.40;;
8622;SDS011;4349;47.552;8.904;2023-06-14T13:01:32;3.50;;;3.20;;
8622;SDS011;4349;47.552;8.904;2023-06-14T13:03:59;3.42;;;3.33;;
8622;SDS011;4349;47.552;8.904;2023-06-14T13:06:27;4.18;;;3.60;;
8622;SDS011;4349;47.552;8.904;2023-06-14T13:08:55;3.58;;;3.42;;
8622;SDS011;4349;47.552;8.904;2023-06-14T13:11:25;3.40;;;3.20;;
8622;SDS011;4349;47.552;8.904;2023-06-14T13:13:52;3.25;;;3.15;;
8622;SDS011;4349;47.552;8.904;2023-06-14T13:16:21;3.47;;;3.38;;
8622;SDS011;4349;47.552;8.904;2023-06-14T13:18:49;3.67;;;3.40;;
8622;SDS011;4349;47.552;8.904;2023-06-14T13:21:16;3.58;;;3.38;;
8622;SDS011;4349;47.552;8.904;2023-06-14T13:23:43;3.97;;;3.72;;
8622;SDS011;4349;47.552;8.904;2023-06-14T13:26:11;3.55;;;3.45;;
8622;SDS011;4349;47.552;8.904;2023-06-14T13:28:38;3.17;;;2.97;;
8622;SDS011;4349;47.552;8.904;2023-06-14T13:31:06;3.70;;;3.40;;
8622;SDS011;4349;47.552;8.904;2023-06-14T13:33:35;3.33;;;3.03;;
8622;SDS011;4349;47.552;8.904;2023-06-14T13:36:02;3.60;;;3.30;;
8622;SDS011;4349;47.552;8.904;2023-06-14T13:38:30;3.30;;;3.20;;
8622;SDS011;4349;47.552;8.904;2023-06-14T13:40:57;3.47;;;3.28;;
8622;SDS011;4349;47.552;8.904;2023-06-14T13:43:24;3.70;;;3.50;;
8622;SDS011;4349;47.552;8.904;2023-06-14T13:45:52;3.25;;;3.10;;
8622;SDS011;4349;47.552;8.904;2023-06-14T13:48:19;3.50;;;3.30;;
8622;SDS011;4349;47.552;8.904;2023-06-14T13:50:48;3.53;;;3.33;;
8622;SDS011;4349;47.552;8.904;2023-06-14T13:53:16;3.40;;;3.30;;
8622;SDS011;4349;47.552;8.904;2023-06-14T13:55:43;3.10;;;2.90;;
8622;SDS011;4349;47.552;8.904;2023-06-14T13:58:11;3.58;;;3.28;;
8622;SDS011;4349;47.552;8.904;2023-06-14T14:00:40;3.30;;;2.97;;
8622;SDS011;4349;47.552;8.904;2023-06-14T14:03:08;3.10;;;2.90;;
8622;SDS011;4349;47.552;8.904;2023-06-14T14:05:36;3.00;;;2.90;;
8622;SDS011;4349;47.552;8.904;2023-06-14T14:08:05;7.53;;;3.53;;
8622;SDS011;4349;47.552;8.904;2023-06-14T14:10:32;3.30;;;3.05;;
8622;SDS011;4349;47.552;8.904;2023-06-14T14:13:00;3.63;;;3.28;;
8622;SDS011;4349;47.552;8.904;2023-06-14T14:15:28;4.07;;;2.95;;
8622;SDS011;4349;47.552;8.904;2023-06-14T14:17:56;3.33;;;3.13;;
8622;SDS011;4349;47.552;8.904;2023-06-14T14:20:24;3.65;;;3.25;;
8622;SDS011;4349;47.552;8.904;2023-06-14T14:22:52;3.10;;;2.90;;
8622;SDS011;4349;47.552;8.904;2023-06-14T14:25:20;3.25;;;3.03;;
8622;SDS011;4349;47.552;8.904;2023-06-14T14:27:48;3.30;;;3.10;;
8622;SDS011;4349;47.552;8.904;2023-06-14T14:30:15;3.70;;;3.40;;
8622;SDS011;4349;47.552;8.904;2023-06-14T14:32:45;3.95;;;3.50;;
8622;SDS011;4349;47.552;8.904;2023-06-14T14:35:14;3.80;;;3.08;;
8622;SDS011;4349;47.552;8.904;2023-06-14T14:37:41;3.85;;;3.53;;
8622;SDS011;4349;47.552;8.904;2023-06-14T14:40:09;3.05;;;2.95;;
8622;SDS011;4349;47.552;8.904;2023-06-14T14:42:38;3.15;;;2.95;;
8622;SDS011;4349;47.552;8.904;2023-06-14T14:45:06;3.33;;;3.10;;
8622;SDS011;4349;47.552;8.904;2023-06-14T14:47:34;3.42;;;3.30;;
8622;SDS011;4349;47.552;8.904;2023-06-14T14:50:01;4.18;;;3.17;;
8622;SDS011;4349;47.552;8.904;2023-06-14T14:52:28;3.30;;;2.80;;
8622;SDS011;4349;47.552;8.904;2023-06-14T14:54:56;3.65;;;3.35;;
8622;SDS011;4349;47.552;8.904;2023-06-14T14:57:23;3.22;;;3.03;;
8622;SDS011;4349;47.552;8.904;2023-06-14T14:59:52;3.08;;;2.97;;
8622;SDS011;4349;47.552;8.904;2023-06-14T15:02:20;3.28;;;3.17;;
8622;SDS011;4349;47.552;8.904;2023-06-14T15:04:49;3.20;;;3.00;;
8622;SDS011;4349;47.552;8.904;2023-06-14T15:07:16;3.15;;;3.05;;
8622;SDS011;4349;47.552;8.904;2023-06-14T15:09:44;3.08;;;2.95;;
8622;SDS011;4349;47.552;8.904;2023-06-14T15:12:11;3.33;;;3.05;;
8622;SDS011;4349;47.552;8.904;2023-06-14T15:14:39;2.90;;;2.65;;
8622;SDS011;4349;47.552;8.904;2023-06-14T15:17:08;3.40;;;3.20;;
8622;SDS011;4349;47.552;8.904;2023-06-14T15:19:35;3.30;;;3.05;;
8622;SDS011;4349;47.552;8.904;2023-06-14T15:22:03;3.00;;;2.90;;
8622;SDS011;4349;47.552;8.904;2023-06-14T15:24:32;3.20;;;3.10;;
8622;SDS011;4349;47.552;8.904;2023-06-14T15:27:09;3.22;;;3.10;;
8622;SDS011;4349;47.552;8.904;2023-06-14T15:29:38;3.38;;;3.10;;